Time;durP1;ratioP1;P1;durP2;ratioP2;P2;SDS_P1;SDS_P2;PMS_P1;PMS_P2;Temp;Humidity;BMP_temperature;BMP_pressure;BME280_temperature;BME280_humidity;BME280_pressure;Samples;Min_cycle;Max_cycle;Signal;HPM_P1;HPM_P2
2022/08/18 00:02:19;;;;;;;14.93;12.63;;;22.20;99.90;;;;;;5028894;28;20518;-76
2022/08/18 00:04:47;;;;;;;14.50;13.10;;;22.20;99.90;;;;;;5021366;28;20876;-75
2022/08/18 00:07:17;;;;;;;20.53;12.90;;;22.10;99.90;;;;;;5018250;28;20447;-75
2022/08/18 00:09:43;;;;;;;13.07;11.70;;;22.10;99.90;;;;;;5022004;28;20454;-75
2022/08/18 00:12:14;;;;;;;18.35;11.57;;;22.10;99.90;;;;;;5016919;28;20474;-75
2022/08/18 00:14:41;;;;;;;15.33;12.40;;;22.10;99.90;;;;;;5021470;28;20199;-75
2022/08/18 00:17:08;;;;;;;12.50;11.30;;;22.00;99.90;;;;;;5018785;28;20517;-76
2022/08/18 00:19:34;;;;;;;13.40;11.97;;;22.00;99.90;;;;;;5034680;28;20528;-75
2022/08/18 00:22:02;;;;;;;15.23;13.63;;;22.00;99.90;;;;;;5031279;28;21056;-75
2022/08/18 00:24:29;;;;;;;15.47;13.50;;;21.90;99.90;;;;;;5029585;28;20446;-75
2022/08/18 00:26:56;;;;;;;16.93;14.40;;;21.90;99.90;;;;;;5030650;28;20464;-75
2022/08/18 00:29:23;;;;;;;18.03;14.10;;;21.80;99.90;;;;;;5030849;28;20445;-75
2022/08/18 00:31:50;;;;;;;13.53;12.13;;;21.70;99.90;;;;;;5029114;28;20474;-75
2022/08/18 00:34:16;;;;;;;15.87;14.17;;;21.70;99.90;;;;;;5047017;28;20502;-75
2022/08/18 00:36:44;;;;;;;20.47;14.20;;;21.60;99.90;;;;;;5018848;28;20454;-76
2022/08/18 00:39:12;;;;;;;15.70;13.03;;;21.50;99.90;;;;;;5029269;28;20912;-75
2022/08/18 00:41:38;;;;;;;15.85;12.57;;;21.50;99.90;;;;;;5030668;28;20481;-75
2022/08/18 00:44:05;;;;;;;14.82;12.52;;;21.40;99.90;;;;;;5030104;28;20206;-75
2022/08/18 00:46:35;;;;;;;15.43;13.70;;;21.40;99.90;;;;;;5043039;28;20654;-75
2022/08/18 00:49:02;;;;;;;17.80;12.73;;;21.30;99.90;;;;;;5036239;28;20495;-75
2022/08/18 00:51:33;;;;;;;13.30;11.30;;;21.20;99.90;;;;;;5030172;28;20535;-75
2022/08/18 00:54:03;;;;;;;14.82;11.38;;;21.10;99.90;;;;;;5035827;28;20457;-76
2022/08/18 00:56:35;;;;;;;13.50;12.10;;;21.10;99.90;;;;;;5029788;28;20257;-75
2022/08/18 00:59:08;;;;;;;15.67;12.47;;;21.10;99.90;;;;;;5022773;28;20537;-75
2022/08/18 01:01:36;;;;;;;13.77;11.82;;;21.00;99.90;;;;;;5024389;28;20513;-75
2022/08/18 01:04:10;;;;;;;12.40;11.13;;;21.00;99.90;;;;;;5027478;28;20238;-75
2022/08/18 01:06:40;;;;;;;14.73;11.27;;;21.00;99.90;;;;;;5023965;28;20454;-75
2022/08/18 01:09:08;;;;;;;13.03;11.30;;;21.00;99.90;;;;;;5034605;28;20456;-75
2022/08/18 01:11:37;;;;;;;12.87;11.50;;;21.00;99.90;;;;;;5037208;28;20480;-76
2022/08/18 01:14:04;;;;;;;12.47;11.27;;;21.00;99.90;;;;;;5028765;28;20520;-75
2022/08/18 01:22:07;;;;;;;12.48;11.20;;;20.90;99.90;;;;;;5028696;28;20464;-76
2022/08/18 01:27:24;;;;;;;13.00;10.90;;;21.00;99.90;;;;;;5025009;28;20420;-75
2022/08/18 01:29:51;;;;;;;17.37;11.60;;;21.00;99.90;;;;;;5034492;28;20483;-75
2022/08/18 01:32:20;;;;;;;13.30;11.90;;;21.10;99.90;;;;;;5029472;28;20516;-76
2022/08/18 01:34:48;;;;;;;14.00;11.93;;;21.00;99.90;;;;;;5029939;28;20454;-75
2022/08/18 01:37:17;;;;;;;13.97;11.23;;;21.00;99.90;;;;;;5027404;28;20425;-75
2022/08/18 01:39:45;;;;;;;13.57;11.68;;;21.00;99.90;;;;;;5026295;28;20489;-75
2022/08/18 01:42:15;;;;;;;13.30;11.32;;;21.00;99.90;;;;;;5023617;28;20253;-75
2022/08/18 01:44:43;;;;;;;15.67;12.03;;;21.00;99.90;;;;;;5031828;28;20203;-76
2022/08/18 01:47:11;;;;;;;13.27;11.90;;;21.00;99.90;;;;;;5025547;28;20485;-75
2022/08/18 01:49:38;;;;;;;12.90;11.63;;;20.90;99.90;;;;;;5026586;28;20965;-75
2022/08/18 01:52:06;;;;;;;14.43;11.93;;;20.90;99.90;;;;;;5025160;28;20938;-76
2022/08/18 01:54:33;;;;;;;13.03;11.70;;;20.90;99.90;;;;;;5025256;28;20450;-75
2022/08/18 01:57:02;;;;;;;12.93;11.63;;;20.90;99.90;;;;;;5025299;28;20510;-75
2022/08/18 01:59:29;;;;;;;12.85;11.55;;;20.90;99.90;;;;;;5020726;28;20482;-75
2022/08/18 02:01:58;;;;;;;16.85;12.55;;;20.90;99.90;;;;;;5020740;28;20219;-75
2022/08/18 02:04:32;;;;;;;13.30;11.63;;;20.90;99.90;;;;;;5024654;28;20203;-75
2022/08/18 02:06:59;;;;;;;15.50;12.83;;;21.00;99.90;;;;;;5021676;28;20457;-76
2022/08/18 02:09:25;;;;;;;15.30;12.57;;;21.00;99.90;;;;;;5023607;28;20449;-76
2022/08/18 02:11:52;;;;;;;16.83;13.70;;;21.00;99.90;;;;;;5022534;28;20477;-75
2022/08/18 02:14:20;;;;;;;14.77;13.17;;;21.00;99.90;;;;;;5027889;28;20508;-75
2022/08/18 02:16:47;;;;;;;15.00;13.57;;;21.00;99.90;;;;;;5030472;28;20454;-75
2022/08/18 02:19:13;;;;;;;15.10;13.57;;;21.00;99.90;;;;;;5021712;28;20490;-76
2022/08/18 02:21:40;;;;;;;14.50;13.00;;;21.00;99.90;;;;;;5020072;28;20532;-75
2022/08/18 02:24:07;;;;;;;16.60;14.80;;;21.10;99.90;;;;;;5022816;28;20453;-75
2022/08/18 02:26:34;;;;;;;15.88;14.20;;;21.10;99.90;;;;;;5018878;28;20509;-76
2022/08/18 02:29:00;;;;;;;14.95;13.45;;;21.10;99.90;;;;;;5022426;28;20206;-76
2022/08/18 02:31:28;;;;;;;16.40;14.30;;;21.10;99.90;;;;;;5028436;28;20248;-76
2022/08/18 02:33:55;;;;;;;18.90;13.90;;;21.00;99.90;;;;;;5033628;28;20546;-75
2022/08/18 02:36:22;;;;;;;19.37;13.97;;;21.10;99.90;;;;;;5025993;28;20520;-75
2022/08/18 02:38:49;;;;;;;16.17;14.50;;;21.10;99.90;;;;;;5030401;28;20507;-75
2022/08/18 02:41:16;;;;;;;16.70;14.27;;;21.10;99.90;;;;;;5028565;28;20928;-76
2022/08/18 02:43:43;;;;;;;17.90;14.00;;;21.00;99.90;;;;;;5031556;28;21007;-75
2022/08/18 02:46:10;;;;;;;16.90;14.23;;;21.00;99.90;;;;;;5031571;28;20950;-75
2022/08/18 02:48:38;;;;;;;17.90;14.50;;;21.00;99.90;;;;;;5035164;28;20449;-75
2022/08/18 02:51:07;;;;;;;16.30;14.60;;;21.00;99.90;;;;;;5030676;28;20507;-76
2022/08/18 02:53:34;;;;;;;17.13;13.90;;;21.00;99.90;;;;;;5029393;28;20972;-75
2022/08/18 02:56:15;;;;;;;19.03;14.30;;;20.90;99.90;;;;;;5038512;28;20511;-75
2022/08/18 02:58:42;;;;;;;15.30;13.50;;;21.00;99.90;;;;;;5033463;28;20528;-75
2022/08/18 03:01:08;;;;;;;15.83;13.60;;;20.90;99.90;;;;;;5033748;28;20573;-75
2022/08/18 03:03:35;;;;;;;16.03;14.00;;;20.90;99.90;;;;;;5035303;28;20457;-75
2022/08/18 03:06:03;;;;;;;16.77;14.30;;;20.80;99.90;;;;;;5038525;28;20454;-75
2022/08/18 03:08:31;;;;;;;16.07;14.33;;;20.80;99.90;;;;;;5033473;28;20450;-75
2022/08/18 03:10:57;;;;;;;17.47;14.63;;;20.80;99.90;;;;;;5030944;28;20500;-75
2022/08/18 03:13:24;;;;;;;15.73;12.90;;;20.70;99.90;;;;;;5031624;28;20864;-75
2022/08/18 03:15:51;;;;;;;15.70;13.77;;;20.70;99.90;;;;;;5035702;28;20257;-76
2022/08/18 03:18:18;;;;;;;14.97;13.47;;;20.60;99.90;;;;;;5029469;28;20989;-76
2022/08/18 03:20:45;;;;;;;15.83;13.67;;;20.60;99.90;;;;;;5030597;28;20551;-75
2022/08/18 03:23:13;;;;;;;15.70;14.00;;;20.60;99.90;;;;;;5034489;28;20503;-75
2022/08/18 03:25:45;;;;;;;15.40;13.80;;;20.50;99.90;;;;;;5042770;28;20553;-76
2022/08/18 03:28:12;;;;;;;15.75;14.10;;;20.50;99.90;;;;;;5033762;28;20197;-75
2022/08/18 03:30:38;;;;;;;20.20;14.60;;;20.50;99.90;;;;;;5029272;28;20208;-75
2022/08/18 03:33:05;;;;;;;17.45;13.98;;;20.50;99.90;;;;;;5032269;28;20473;-75
2022/08/18 03:35:33;;;;;;;17.90;14.53;;;20.50;99.90;;;;;;5029192;28;20271;-75
2022/08/18 03:38:00;;;;;;;21.53;15.50;;;20.60;99.90;;;;;;5029476;28;20466;-75
2022/08/18 03:40:28;;;;;;;17.53;15.23;;;20.50;99.90;;;;;;5027978;28;21075;-75
2022/08/18 03:42:55;;;;;;;17.70;15.27;;;20.50;99.90;;;;;;5030869;28;21040;-75
2022/08/18 03:45:23;;;;;;;16.75;14.95;;;20.50;99.90;;;;;;5035884;28;20507;-76
2022/08/18 03:47:51;;;;;;;18.73;15.07;;;20.40;99.90;;;;;;5029624;28;20199;-75
2022/08/18 03:50:18;;;;;;;23.53;16.10;;;20.30;99.90;;;;;;5028004;28;20459;-75
2022/08/18 03:52:47;;;;;;;18.20;15.13;;;20.30;99.90;;;;;;5033769;28;20470;-75
2022/08/18 03:55:14;;;;;;;17.67;14.80;;;20.20;99.90;;;;;;5027510;28;20465;-75
2022/08/18 03:57:42;;;;;;;16.27;14.57;;;20.20;99.90;;;;;;5029232;28;20517;-75
2022/08/18 04:00:10;;;;;;;15.30;13.73;;;20.20;99.90;;;;;;5028173;28;20486;-75
2022/08/18 04:02:37;;;;;;;20.17;14.73;;;20.10;99.90;;;;;;5031015;28;20913;-75
2022/08/18 04:05:05;;;;;;;15.93;14.30;;;20.10;99.90;;;;;;5029572;28;20684;-75
2022/08/18 04:07:31;;;;;;;16.67;14.93;;;20.10;99.90;;;;;;5026983;28;20450;-76
2022/08/18 04:09:58;;;;;;;22.03;15.23;;;20.00;99.90;;;;;;5027026;28;20895;-75
2022/08/18 04:12:25;;;;;;;19.20;16.23;;;20.00;99.90;;;;;;5033311;28;20469;-75
2022/08/18 04:14:53;;;;;;;20.40;15.97;;;19.90;99.90;;;;;;5032638;28;20469;-75
2022/08/18 04:17:23;;;;;;;19.90;16.00;;;19.90;99.90;;;;;;5026525;28;20454;-75
2022/08/18 04:19:50;;;;;;;17.87;15.20;;;19.90;99.90;;;;;;5024102;28;20513;-75
2022/08/18 04:22:17;;;;;;;21.87;15.67;;;19.90;99.90;;;;;;5027468;28;20451;-75
2022/08/18 04:24:45;;;;;;;18.13;14.30;;;19.90;99.90;;;;;;5030268;28;20939;-75
2022/08/18 04:27:12;;;;;;;17.43;15.47;;;19.90;99.90;;;;;;5029791;28;20726;-75
2022/08/18 04:29:38;;;;;;;21.63;16.43;;;19.90;99.90;;;;;;5024844;28;20451;-75
2022/08/18 04:32:07;;;;;;;19.93;15.60;;;19.90;99.90;;;;;;5026323;28;20523;-75
2022/08/18 04:34:34;;;;;;;23.30;15.53;;;19.90;99.90;;;;;;5027427;28;20451;-75
2022/08/18 04:37:01;;;;;;;22.20;16.50;;;19.90;99.90;;;;;;5024769;28;20427;-75
2022/08/18 04:39:29;;;;;;;19.23;14.50;;;19.90;99.90;;;;;;5026718;28;20523;-75
2022/08/18 04:41:56;;;;;;;19.53;15.20;;;19.90;99.90;;;;;;5034229;28;20490;-75
2022/08/18 04:44:22;;;;;;;18.43;15.23;;;19.90;99.90;;;;;;5028108;28;20451;-75
2022/08/18 04:46:51;;;;;;;19.80;16.43;;;19.90;99.90;;;;;;5029036;28;20556;-75
2022/08/18 04:49:24;;;;;;;19.10;15.33;;;19.90;99.90;;;;;;5032171;28;20940;-75
2022/08/18 04:54:35;;;;;;;20.00;14.95;;;19.90;99.90;;;;;;5031691;28;20969;-74
2022/08/18 04:57:07;;;;;;;19.50;15.10;;;20.00;99.90;;;;;;5039116;28;20257;-75
2022/08/18 04:59:34;;;;;;;16.80;14.80;;;20.00;99.90;;;;;;5031877;28;20840;-75
2022/08/18 05:02:04;;;;;;;19.23;15.00;;;20.10;99.90;;;;;;5028736;28;20543;-75
2022/08/18 05:04:33;;;;;;;18.67;14.10;;;20.20;99.90;;;;;;5029863;28;20461;-74
2022/08/18 05:07:00;;;;;;;18.60;15.87;;;20.20;99.90;;;;;;5032313;28;20456;-74
2022/08/18 05:09:27;;;;;;;16.50;14.77;;;20.30;99.90;;;;;;5032815;28;20472;-74
2022/08/18 05:11:53;;;;;;;18.73;14.07;;;20.40;99.90;;;;;;5035754;28;20266;-74
2022/08/18 05:14:21;;;;;;;19.43;15.70;;;20.50;99.90;;;;;;5030222;28;20454;-75
2022/08/18 05:16:48;;;;;;;21.52;15.90;;;20.60;99.90;;;;;;5026525;28;20477;-74
2022/08/18 05:19:18;;;;;;;18.93;14.20;;;20.60;99.90;;;;;;5028989;28;20297;-74
2022/08/18 05:21:46;;;;;;;15.57;13.88;;;20.60;99.90;;;;;;5029509;28;20502;-73
2022/08/18 05:24:13;;;;;;;24.30;16.47;;;20.60;99.90;;;;;;5032514;28;20207;-74
2022/08/18 05:26:40;;;;;;;23.33;15.50;;;20.70;99.90;;;;;;5029473;28;20450;-75
2022/08/18 05:29:07;;;;;;;15.20;13.60;;;20.70;99.90;;;;;;5027550;28;20507;-74
2022/08/18 05:31:34;;;;;;;15.60;13.00;;;20.70;99.90;;;;;;5027972;28;20519;-74
2022/08/18 05:34:02;;;;;;;17.50;15.40;;;20.70;99.90;;;;;;5029704;28;21032;-74
2022/08/18 05:36:49;;;;;;;17.53;14.53;;;20.80;99.90;;;;;;5028974;28;20491;-73
2022/08/18 05:39:23;;;;;;;20.23;16.00;;;20.80;99.90;;;;;;5026634;28;20463;-74
2022/08/18 05:41:53;;;;;;;16.97;15.07;;;20.90;99.90;;;;;;5025420;28;20493;-74
2022/08/18 05:44:27;;;;;;;20.83;14.80;;;20.90;99.90;;;;;;5031958;28;20489;-74
2022/08/18 05:46:57;;;;;;;17.13;15.23;;;20.90;99.90;;;;;;5028841;28;20456;-75
2022/08/18 05:49:25;;;;;;;22.50;15.73;;;21.00;99.90;;;;;;5027218;28;20276;-74
2022/08/18 05:51:55;;;;;;;20.80;16.53;;;21.00;99.90;;;;;;5028023;28;20481;-74
2022/08/18 05:57:15;;;;;;;21.23;17.03;;;21.00;99.90;;;;;;5033208;28;20450;-74
2022/08/18 05:59:43;;;;;;;17.92;15.88;;;21.00;99.90;;;;;;5032977;28;20804;-73
2022/08/18 06:02:15;;;;;;;19.93;16.00;;;21.00;99.90;;;;;;5031359;28;20226;-73
2022/08/18 06:04:47;;;;;;;17.20;14.60;;;21.00;99.90;;;;;;5027400;28;20962;-73
2022/08/18 06:07:18;;;;;;;15.60;12.90;;;21.00;99.90;;;;;;5027495;28;20584;-73
2022/08/18 06:09:49;;;;;;;27.93;14.90;;;21.10;99.90;;;;;;5026252;28;20203;-73
2022/08/18 06:12:27;;;;;;;19.60;14.80;;;21.20;99.90;;;;;;5026679;28;20471;-72
2022/08/18 06:15:03;;;;;;;19.40;16.17;;;21.20;99.90;;;;;;5026333;28;20852;-72
2022/08/18 06:17:51;;;;;;;21.30;15.50;;;21.30;99.90;;;;;;5025129;28;20909;-72
2022/08/18 06:20:25;;;;;;;26.20;17.00;;;21.30;99.90;;;;;;5026740;28;20536;-73
2022/08/18 06:22:58;;;;;;;17.63;15.73;;;21.30;99.90;;;;;;5027200;28;20498;-72
2022/08/18 06:25:34;;;;;;;25.70;17.90;;;21.30;99.90;;;;;;5026212;28;20488;-74
2022/08/18 06:28:05;;;;;;;25.13;16.53;;;21.30;99.90;;;;;;5025939;28;20457;-73
2022/08/18 06:30:44;;;;;;;20.60;16.57;;;21.30;99.90;;;;;;5026015;28;20492;-73
2022/08/18 06:33:19;;;;;;;21.20;16.83;;;21.30;99.90;;;;;;5026073;28;20478;-72
2022/08/18 06:35:49;;;;;;;22.83;17.20;;;21.30;99.90;;;;;;5026394;28;20504;-73
2022/08/18 06:38:38;;;;;;;19.13;16.40;;;21.40;99.90;;;;;;5025548;28;20458;-73
2022/08/18 06:41:13;;;;;;;22.70;17.63;;;21.40;99.90;;;;;;5027004;28;20481;-73
2022/08/18 06:43:50;;;;;;;20.23;15.20;;;21.40;99.90;;;;;;5026676;28;21005;-73
2022/08/18 06:46:24;;;;;;;24.07;18.30;;;21.40;99.90;;;;;;5025282;28;20436;-73
2022/08/18 06:48:54;;;;;;;20.73;16.90;;;21.50;99.90;;;;;;5028053;28;20500;-73
2022/08/18 06:51:23;;;;;;;19.13;17.07;;;21.50;99.90;;;;;;5026356;28;20481;-72
2022/08/18 06:53:53;;;;;;;22.80;18.93;;;21.60;99.90;;;;;;5026791;28;20445;-74
2022/08/18 06:56:25;;;;;;;23.90;18.17;;;21.60;99.90;;;;;;5026878;28;20454;-73
2022/08/18 06:58:54;;;;;;;21.57;18.17;;;21.60;99.90;;;;;;5025902;28;20450;-74
2022/08/18 07:01:22;;;;;;;21.67;18.57;;;21.70;99.90;;;;;;5026213;28;20578;-73
2022/08/18 07:03:53;;;;;;;31.30;19.13;;;21.70;99.90;;;;;;5027379;28;20458;-72
2022/08/18 07:06:31;;;;;;;23.47;17.40;;;21.70;99.90;;;;;;5025199;28;20954;-73
2022/08/18 07:09:20;;;;;;;25.07;18.50;;;21.70;99.90;;;;;;5026564;28;20489;-73
2022/08/18 07:12:01;;;;;;;24.50;19.10;;;21.70;99.90;;;;;;5027074;28;20432;-73
2022/08/18 07:14:28;;;;;;;26.57;17.20;;;21.70;99.90;;;;;;5026873;28;20268;-73
2022/08/18 07:17:07;;;;;;;20.40;18.20;;;21.70;99.90;;;;;;5026535;28;20519;-73
2022/08/18 07:19:34;;;;;;;22.87;16.87;;;21.70;99.90;;;;;;5026675;28;20261;-73
2022/08/18 07:22:04;;;;;;;26.07;17.97;;;21.60;99.90;;;;;;5026437;28;20490;-73
2022/08/18 07:24:33;;;;;;;21.03;17.70;;;21.70;99.90;;;;;;5026523;28;20457;-73
2022/08/18 07:27:04;;;;;;;20.60;17.65;;;21.70;99.90;;;;;;5026425;28;20976;-73
2022/08/18 07:29:33;;;;;;;20.10;17.77;;;21.60;99.90;;;;;;5026119;28;20733;-73
2022/08/18 07:32:04;;;;;;;20.90;17.05;;;21.70;99.90;;;;;;5025952;28;20223;-73
2022/08/18 07:34:35;;;;;;;21.13;18.40;;;21.70;99.90;;;;;;5026235;28;20223;-73
2022/08/18 07:37:06;;;;;;;21.40;17.83;;;21.60;99.90;;;;;;5026931;28;20520;-73
2022/08/18 07:39:40;;;;;;;24.10;17.92;;;21.60;99.90;;;;;;5026624;28;20292;-73
2022/08/18 07:42:13;;;;;;;26.57;18.30;;;21.60;99.90;;;;;;5029971;28;20305;-74
2022/08/18 07:44:45;;;;;;;24.57;18.93;;;21.50;99.90;;;;;;5029727;28;20483;-74
2022/08/18 07:47:18;;;;;;;25.50;17.67;;;21.50;99.90;;;;;;5030496;28;20519;-73
2022/08/18 07:49:47;;;;;;;29.77;18.97;;;21.50;99.90;;;;;;5030437;28;20454;-72
2022/08/18 07:52:20;;;;;;;26.10;18.40;;;21.50;99.90;;;;;;5030172;28;20468;-73
2022/08/18 07:54:55;;;;;;;27.60;19.13;;;21.50;99.90;;;;;;5030258;28;20504;-72
2022/08/18 07:57:36;;;;;;;23.45;17.85;;;21.50;99.90;;;;;;5030224;28;20461;-73
2022/08/18 08:00:09;;;;;;;23.20;18.70;;;21.40;99.90;;;;;;5030124;28;20195;-73
2022/08/18 08:02:46;;;;;;;26.23;19.50;;;21.40;99.90;;;;;;5029533;28;20512;-72
2022/08/18 08:05:20;;;;;;;20.13;17.70;;;21.40;99.90;;;;;;5029237;28;20454;-72
2022/08/18 08:07:54;;;;;;;24.83;19.43;;;21.40;99.90;;;;;;5030007;28;20511;-74
2022/08/18 08:10:31;;;;;;;25.20;17.17;;;21.40;99.90;;;;;;5029458;28;20448;-74
2022/08/18 08:13:08;;;;;;;23.53;19.20;;;21.40;99.90;;;;;;5030272;28;20526;-74
2022/08/18 08:15:44;;;;;;;27.43;18.73;;;21.50;99.90;;;;;;5030808;28;20446;-74
2022/08/18 08:18:17;;;;;;;24.10;17.77;;;21.50;99.90;;;;;;5030433;28;20450;-74
2022/08/18 08:20:49;;;;;;;20.70;17.30;;;21.60;99.90;;;;;;5029610;28;20520;-74
2022/08/18 08:23:26;;;;;;;25.17;18.23;;;21.60;99.90;;;;;;5029098;28;20564;-74
2022/08/18 08:26:24;;;;;;;23.63;18.80;;;21.60;99.90;;;;;;5028530;28;20203;-74
2022/08/18 08:29:07;;;;;;;20.23;17.00;;;21.70;99.90;;;;;;5028936;28;20461;-74
2022/08/18 08:31:43;;;;;;;17.87;15.97;;;21.70;99.90;;;;;;5029468;28;20476;-74
2022/08/18 08:34:14;;;;;;;25.95;16.92;;;21.70;99.90;;;;;;5029377;28;20452;-74
2022/08/18 08:36:44;;;;;;;19.30;16.67;;;21.70;99.90;;;;;;5029087;28;20249;-74
2022/08/18 08:39:18;;;;;;;22.80;16.42;;;21.70;99.90;;;;;;5029293;28;20215;-75
2022/08/18 08:41:49;;;;;;;26.90;17.40;;;21.70;99.90;;;;;;5028674;28;20256;-75
2022/08/18 08:44:24;;;;;;;23.10;15.40;;;21.70;99.90;;;;;;5029671;28;20469;-75
2022/08/18 08:46:55;;;;;;;18.83;16.73;;;21.80;99.90;;;;;;5029080;28;20534;-75
2022/08/18 08:49:33;;;;;;;20.53;16.50;;;21.80;99.90;;;;;;5028488;28;20206;-75
2022/08/18 08:52:03;;;;;;;18.70;15.97;;;21.90;99.90;;;;;;5027809;28;20897;-75
2022/08/18 08:54:41;;;;;;;18.00;15.83;;;21.90;99.90;;;;;;5028460;28;21011;-75
2022/08/18 08:57:09;;;;;;;20.70;16.47;;;22.00;99.90;;;;;;5027499;28;20454;-74
2022/08/18 08:59:39;;;;;;;29.33;16.80;;;21.90;99.90;;;;;;5029545;28;20446;-74
2022/08/18 09:02:29;;;;;;;22.83;16.10;;;22.00;99.90;;;;;;5026780;28;20489;-74
2022/08/18 09:05:07;;;;;;;20.63;15.27;;;22.10;99.90;;;;;;5028257;28;20211;-74
2022/08/18 09:07:50;;;;;;;21.40;15.43;;;22.10;99.90;;;;;;5029670;28;20458;-74
2022/08/18 09:10:59;;;;;;;20.48;15.38;;;22.10;99.90;;;;;;5027905;28;20879;-74
2022/08/18 09:13:52;;;;;;;25.70;15.95;;;22.10;99.90;;;;;;5006055;28;20260;-73
2022/08/18 09:16:35;;;;;;;19.63;15.95;;;22.30;99.90;;;;;;5028510;28;20853;-74
2022/08/18 09:19:16;;;;;;;30.73;15.93;;;22.30;99.90;;;;;;5028924;28;20253;-73
2022/08/18 09:21:48;;;;;;;20.70;15.97;;;22.40;99.90;;;;;;5029142;28;20485;-74
2022/08/18 09:24:23;;;;;;;18.80;16.27;;;22.50;99.90;;;;;;5028454;28;20462;-74
2022/08/18 09:26:53;;;;;;;20.10;17.10;;;22.50;99.90;;;;;;5028176;28;20488;-73
2022/08/18 09:29:26;;;;;;;18.90;15.80;;;22.50;99.90;;;;;;5028946;28;20540;-74
2022/08/18 09:32:31;;;;;;;26.73;15.90;;;22.60;99.90;;;;;;5027174;28;20470;-74
2022/08/18 09:35:09;;;;;;;18.40;16.10;;;22.70;99.90;;;;;;5026842;28;20955;-75
2022/08/18 09:37:45;;;;;;;16.50;14.67;;;22.90;99.90;;;;;;5028054;28;20470;-75
2022/08/18 09:43:13;;;;;;;22.80;16.10;;;23.20;99.90;;;;;;5026854;28;20521;-75
2022/08/18 09:45:54;;;;;;;22.13;16.23;;;23.40;99.90;;;;;;5025615;28;20449;-75
2022/08/18 09:48:29;;;;;;;22.70;15.37;;;23.50;99.90;;;;;;5027967;28;20545;-75
2022/08/18 09:51:30;;;;;;;18.03;14.90;;;23.70;99.90;;;;;;5026906;28;20468;-75
2022/08/18 09:54:13;;;;;;;17.77;15.93;;;23.80;99.90;;;;;;5024607;28;20503;-75
2022/08/18 09:57:16;;;;;;;24.17;17.03;;;23.80;99.90;;;;;;5027147;28;21037;-76
2022/08/18 10:00:18;;;;;;;20.43;16.27;;;23.80;99.90;;;;;;5027660;28;20453;-75
2022/08/18 10:03:23;;;;;;;19.60;15.57;;;23.80;99.90;;;;;;5026363;28;20477;-75
2022/08/18 10:06:18;;;;;;;19.13;15.07;;;23.90;99.90;;;;;;5027058;28;20449;-75
2022/08/18 10:09:15;;;;;;;18.57;15.77;;;23.90;99.90;;;;;;5026900;28;20454;-77
2022/08/18 10:11:56;;;;;;;16.70;14.90;;;24.00;99.90;;;;;;5026911;28;20476;-76
2022/08/18 10:14:45;;;;;;;20.27;15.57;;;24.10;99.90;;;;;;5027996;28;20447;-76
2022/08/18 10:17:28;;;;;;;20.10;16.17;;;24.10;99.90;;;;;;5027456;28;20507;-78
2022/08/18 10:20:04;;;;;;;17.30;15.50;;;24.20;99.90;;;;;;5022510;28;20457;-76
2022/08/18 10:22:40;;;;;;;19.03;16.10;;;24.20;99.90;;;;;;5026112;28;20589;-75
2022/08/18 10:25:10;;;;;;;27.20;16.10;;;24.30;99.90;;;;;;5026013;28;20505;-75
2022/08/18 10:27:49;;;;;;;17.97;16.00;;;24.30;99.90;;;;;;5026252;28;21190;-75
2022/08/18 10:31:02;;;;;;;21.58;16.20;;;24.40;99.90;;;;;;5027325;28;20454;-75
2022/08/18 10:33:58;;;;;;;21.55;16.55;;;24.40;99.90;;;;;;5026114;28;20191;-74
2022/08/18 10:36:47;;;;;;;19.37;16.23;;;24.50;99.90;;;;;;5027066;28;20208;-73
2022/08/18 10:39:19;;;;;;;19.73;15.97;;;24.50;99.90;;;;;;5025950;28;20449;-74
2022/08/18 10:42:03;;;;;;;16.50;14.83;;;24.70;99.90;;;;;;5026883;28;21156;-74
2022/08/18 10:44:36;;;;;;;18.63;15.60;;;24.80;99.90;;;;;;5027593;28;20956;-74
2022/08/18 10:47:03;;;;;;;19.90;15.67;;;24.80;99.90;;;;;;5027110;28;20465;-74
2022/08/18 10:49:32;;;;;;;19.13;15.00;;;24.90;99.90;;;;;;5028084;28;20885;-74
2022/08/18 10:52:37;;;;;;;22.23;14.68;;;24.90;99.90;;;;;;5026581;28;20477;-73
2022/08/18 10:55:18;;;;;;;17.55;15.07;;;24.80;99.90;;;;;;5026593;28;20243;-74
2022/08/18 10:58:20;;;;;;;18.53;14.00;;;24.80;99.90;;;;;;5025516;28;20616;-74
2022/08/18 11:00:58;;;;;;;24.13;14.77;;;24.70;99.90;;;;;;5025766;28;20468;-73
2022/08/18 11:03:39;;;;;;;17.93;14.30;;;24.70;99.90;;;;;;5025526;28;20716;-75
2022/08/18 11:06:08;;;;;;;14.13;12.63;;;24.70;99.90;;;;;;5025058;28;20465;-74
2022/08/18 11:08:42;;;;;;;15.20;11.97;;;24.60;99.90;;;;;;5026020;28;20450;-73
2022/08/18 11:11:12;;;;;;;23.10;13.80;;;24.50;99.90;;;;;;5024984;28;20523;-73
2022/08/18 11:13:51;;;;;;;13.90;12.50;;;24.50;99.90;;;;;;5026716;28;20503;-74
2022/08/18 11:16:32;;;;;;;17.33;12.53;;;24.50;99.90;;;;;;5029476;28;20237;-73
2022/08/18 11:19:09;;;;;;;15.10;12.80;;;24.40;99.90;;;;;;5030012;28;20515;-73
2022/08/18 11:21:41;;;;;;;23.70;14.50;;;24.50;99.90;;;;;;5030518;28;20838;-74
2022/08/18 11:24:11;;;;;;;16.15;14.45;;;24.40;99.90;;;;;;5029845;28;21047;-74
2022/08/18 11:26:42;;;;;;;17.27;14.13;;;24.40;99.90;;;;;;5030149;28;20235;-74
2022/08/18 11:29:32;;;;;;;19.40;14.73;;;24.40;99.90;;;;;;5029433;28;20493;-74
2022/08/18 11:32:05;;;;;;;19.70;14.83;;;24.30;99.90;;;;;;5028950;28;20585;-74
2022/08/18 11:34:37;;;;;;;20.87;15.40;;;24.20;99.90;;;;;;5030245;28;20453;-74
2022/08/18 11:37:07;;;;;;;17.13;14.27;;;24.30;99.90;;;;;;5029409;28;20801;-74
2022/08/18 11:39:41;;;;;;;17.10;13.83;;;24.20;99.90;;;;;;5030192;28;20513;-75
2022/08/18 11:42:10;;;;;;;16.48;14.20;;;24.30;99.90;;;;;;5029136;28;20509;-75
2022/08/18 11:44:39;;;;;;;17.10;13.73;;;24.10;99.90;;;;;;5029333;28;20203;-75
2022/08/18 11:47:15;;;;;;;18.10;13.07;;;24.10;99.90;;;;;;5028904;28;20451;-74
2022/08/18 11:49:55;;;;;;;20.07;14.00;;;24.00;99.90;;;;;;5029665;28;20488;-74
2022/08/18 11:52:25;;;;;;;27.93;13.90;;;23.90;99.90;;;;;;5029445;28;20522;-75
2022/08/18 11:54:52;;;;;;;21.50;14.67;;;23.80;99.90;;;;;;5028630;28;20442;-75
2022/08/18 11:57:48;;;;;;;16.90;15.10;;;23.70;99.90;;;;;;5029195;28;20446;-75
2022/08/18 12:00:37;;;;;;;16.10;14.40;;;23.70;99.90;;;;;;5028185;28;20458;-74
2022/08/18 12:03:07;;;;;;;16.27;14.07;;;23.70;99.90;;;;;;5028408;28;20489;-78
2022/08/18 12:05:46;;;;;;;19.47;15.40;;;23.90;99.90;;;;;;5029608;28;20456;-77
2022/08/18 12:08:22;;;;;;;15.80;14.20;;;23.90;99.90;;;;;;5031058;28;20886;-77
2022/08/18 12:11:00;;;;;;;17.97;14.33;;;24.10;99.90;;;;;;5029600;28;20445;-77
2022/08/18 12:13:28;;;;;;;20.13;13.80;;;24.60;99.90;;;;;;5027536;28;21070;-77
2022/08/18 12:16:14;;;;;;;14.50;13.10;;;25.50;99.90;;;;;;5027225;28;20469;-77
2022/08/18 12:18:41;;;;;;;16.17;14.57;;;26.20;99.90;;;;;;5028047;28;20202;-77
2022/08/18 12:21:09;;;;;;;15.45;13.85;;;26.40;99.90;;;;;;5028503;28;20465;-77
2022/08/18 12:23:39;;;;;;;15.53;13.93;;;26.40;99.90;;;;;;5029408;28;20722;-80
2022/08/18 12:26:07;;;;;;;16.05;13.00;;;26.40;99.90;;;;;;5030280;28;20449;-79
2022/08/18 12:28:35;;;;;;;18.10;15.40;;;26.40;99.90;;;;;;5029127;28;20199;-79
2022/08/18 12:31:02;;;;;;;18.57;13.77;;;26.30;99.90;;;;;;5030333;28;20203;-80
2022/08/18 12:33:28;;;;;;;18.67;14.50;;;26.40;99.90;;;;;;5030545;28;20446;-79
2022/08/18 12:35:55;;;;;;;22.93;15.63;;;26.80;99.90;;;;;;5030524;28;20872;-79
2022/08/18 12:38:22;;;;;;;15.33;13.73;;;27.00;99.90;;;;;;5030231;28;20515;-79
2022/08/18 12:40:49;;;;;;;17.50;14.43;;;27.10;99.90;;;;;;5027741;28;20462;-79
2022/08/18 12:43:15;;;;;;;16.17;13.00;;;27.10;99.90;;;;;;5027634;28;21192;-79
2022/08/18 12:45:43;;;;;;;16.17;13.37;;;27.40;99.90;;;;;;5028443;28;20524;-79
2022/08/18 12:48:10;;;;;;;14.73;13.23;;;27.60;99.90;;;;;;5021538;28;20458;-80
2022/08/18 12:50:38;;;;;;;16.20;14.60;;;27.40;99.90;;;;;;5016975;28;20962;-78
2022/08/18 12:53:05;;;;;;;19.83;13.80;;;27.50;99.90;;;;;;5025224;28;20488;-80
2022/08/18 12:55:36;;;;;;;20.30;13.10;;;27.50;99.90;;;;;;5031656;28;20457;-80
2022/08/18 12:58:04;;;;;;;18.43;13.10;;;27.50;99.90;;;;;;5023852;28;20502;-81
2022/08/18 13:00:31;;;;;;;16.10;11.93;;;27.70;99.90;;;;;;5011501;28;20456;-80
2022/08/18 13:02:59;;;;;;;16.80;12.80;;;28.10;99.90;;;;;;5011661;28;20865;-79
2022/08/18 13:05:27;;;;;;;13.57;12.20;;;28.40;99.90;;;;;;5012709;28;20454;-80
2022/08/18 13:07:53;;;;;;;14.60;11.87;;;28.40;99.90;;;;;;5012717;28;20868;-79
2022/08/18 13:10:20;;;;;;;15.17;13.57;;;28.30;99.90;;;;;;5012928;28;20463;-79
2022/08/18 13:12:47;;;;;;;16.83;12.40;;;28.10;99.90;;;;;;5012802;28;20842;-79